Archival Weather

Bob Hope

Burbank, California (KBUR)

Report from: Monday, January 29, 2024 10:53 AM PST
Current time: Friday, June 14, 2024 4:11 AM PDT

Current weather – Weather history – Daily summaries
Weather forecast

Temperature22.2°C (72.0°F)
Dew point1.7°C (35.1°F)
Winds Calm
Visibility10 mi. (16.1 km)
Clouds Sky clear
Altimeter30.14 in.Hg (1021 mB)
Relative humidity26 %
Density altitude736 ft. (224 m)
Sea-level pressure102.0 kPa (1020 mB, 30.11 in.Hg)
Remarks Automated weather observing station with precipitation discriminator
Flight conditions Visual Meteorological Conditions
Raw dataKBUR 291853Z 00000KT 10SM CLR 22/02 A3014 RMK AO2 SLP195 T02220017
An error has occurred. This application may no longer respond until reloaded. Reload 🗙